sensor_id;sensor_type;location;lat;lon;timestamp;pressure;altitude;pressure_sealevel;temperature;humidity
49611;BME280;35515;48.766;9.176;2023-05-23T00:01:28;98166.97;;;19.36;88.37
49611;BME280;35515;48.766;9.176;2023-05-23T00:03:55;98164.91;;;19.00;91.03
49611;BME280;35515;48.766;9.176;2023-05-23T00:06:22;98163.53;;;18.93;91.85
49611;BME280;35515;48.766;9.176;2023-05-23T00:08:48;98168.19;;;18.92;91.67
49611;BME280;35515;48.766;9.176;2023-05-23T00:11:15;98168.44;;;18.91;92.23
49611;BME280;35515;48.766;9.176;2023-05-23T00:13:43;98164.66;;;18.97;91.51
49611;BME280;35515;48.766;9.176;2023-05-23T00:16:10;98173.31;;;18.78;93.15
49611;BME280;35515;48.766;9.176;2023-05-23T00:18:40;98162.09;;;18.85;93.23
49611;BME280;35515;48.766;9.176;2023-05-23T00:21:07;98166.72;;;18.84;93.50
49611;BME280;35515;48.766;9.176;2023-05-23T00:23:34;98161.50;;;18.83;92.86
49611;BME280;35515;48.766;9.176;2023-05-23T00:26:00;98157.75;;;18.89;93.05
49611;BME280;35515;48.766;9.176;2023-05-23T00:28:28;98164.41;;;19.03;92.58
49611;BME280;35515;48.766;9.176;2023-05-23T00:30:54;98155.03;;;18.94;92.67
49611;BME280;35515;48.766;9.176;2023-05-23T00:33:21;98159.13;;;18.92;93.24
49611;BME280;35515;48.766;9.176;2023-05-23T00:35:49;98166.22;;;18.87;94.29
49611;BME280;35515;48.766;9.176;2023-05-23T00:38:16;98168.19;;;18.92;93.94
49611;BME280;35515;48.766;9.176;2023-05-23T00:40:42;98174.50;;;18.98;93.28
49611;BME280;35515;48.766;9.176;2023-05-23T00:43:09;98164.03;;;18.90;93.81
49611;BME280;35515;48.766;9.176;2023-05-23T00:45:36;98174.41;;;18.82;94.39
49611;BME280;35515;48.766;9.176;2023-05-23T00:48:04;98175.22;;;18.78;95.44
49611;BME280;35515;48.766;9.176;2023-05-23T00:50:31;98168.38;;;18.85;94.08
49611;BME280;35515;48.766;9.176;2023-05-23T00:53:00;98173.34;;;18.83;94.70
49611;BME280;35515;48.766;9.176;2023-05-23T00:55:27;98175.47;;;18.76;95.37
49611;BME280;35515;48.766;9.176;2023-05-23T00:57:54;98176.31;;;18.77;95.31
49611;BME280;35515;48.766;9.176;2023-05-23T01:00:22;98179.88;;;18.77;95.54
49611;BME280;35515;48.766;9.176;2023-05-23T01:02:49;98177.72;;;18.84;95.63
49611;BME280;35515;48.766;9.176;2023-05-23T01:05:16;98184.91;;;18.91;94.79
49611;BME280;35515;48.766;9.176;2023-05-23T01:07:43;98177.72;;;18.84;94.93
49611;BME280;35515;48.766;9.176;2023-05-23T01:10:13;98185.94;;;18.84;94.89
49611;BME280;35515;48.766;9.176;2023-05-23T01:12:50;98184.84;;;18.85;95.26
49611;BME280;35515;48.766;9.176;2023-05-23T01:15:24;98183.19;;;18.84;94.86
49611;BME280;35515;48.766;9.176;2023-05-23T01:17:58;98175.22;;;18.78;95.64
49611;BME280;35515;48.766;9.176;2023-05-23T01:20:29;98183.66;;;18.66;96.96
49611;BME280;35515;48.766;9.176;2023-05-23T01:23:12;98192.78;;;18.82;95.59
49611;BME280;35515;48.766;9.176;2023-05-23T01:26:02;98184.78;;;18.75;95.72
49611;BME280;35515;48.766;9.176;2023-05-23T01:28:35;98182.66;;;18.82;95.28
49611;BME280;35515;48.766;9.176;2023-05-23T01:31:03;98185.69;;;18.86;94.72
49611;BME280;35515;48.766;9.176;2023-05-23T01:33:32;98177.09;;;18.72;96.02
49611;BME280;35515;48.766;9.176;2023-05-23T01:36:01;98180.31;;;18.59;96.63
49611;BME280;35515;48.766;9.176;2023-05-23T01:38:28;98181.41;;;18.58;96.80
49611;BME280;35515;48.766;9.176;2023-05-23T01:40:55;98180.31;;;18.59;96.43
49611;BME280;35515;48.766;9.176;2023-05-23T01:43:22;98183.66;;;18.61;96.59
49611;BME280;35515;48.766;9.176;2023-05-23T01:45:52;98186.38;;;18.66;96.24
49611;BME280;35515;48.766;9.176;2023-05-23T01:48:21;98190.72;;;18.51;97.05
49611;BME280;35515;48.766;9.176;2023-05-23T01:50:49;98192.06;;;18.49;97.89
49611;BME280;35515;48.766;9.176;2023-05-23T01:53:19;98190.44;;;18.53;96.83
49611;BME280;35515;48.766;9.176;2023-05-23T01:55:46;98186.34;;;18.55;96.77
49611;BME280;35515;48.766;9.176;2023-05-23T01:58:13;98198.63;;;18.48;97.29
49611;BME280;35515;48.766;9.176;2023-05-23T02:00:40;98198.06;;;18.46;97.28
49611;BME280;35515;48.766;9.176;2023-05-23T02:03:08;98190.09;;;18.44;97.68
49611;BME280;35515;48.766;9.176;2023-05-23T02:05:35;98193.97;;;18.48;97.13
49611;BME280;35515;48.766;9.176;2023-05-23T02:08:02;98185.69;;;18.43;97.30
49611;BME280;35515;48.766;9.176;2023-05-23T02:10:28;98190.66;;;18.41;97.88
49611;BME280;35515;48.766;9.176;2023-05-23T02:12:55;98188.72;;;18.42;97.30
49611;BME280;35515;48.766;9.176;2023-05-23T02:15:22;98186.25;;;18.40;97.58
49611;BME280;35515;48.766;9.176;2023-05-23T02:17:48;98189.53;;;18.37;97.96
49611;BME280;35515;48.766;9.176;2023-05-23T02:20:17;98191.75;;;18.45;97.19
49611;BME280;35515;48.766;9.176;2023-05-23T02:22:44;98191.19;;;18.38;98.18
49611;BME280;35515;48.766;9.176;2023-05-23T02:25:11;98193.06;;;18.37;97.38
49611;BME280;35515;48.766;9.176;2023-05-23T02:27:37;98189.81;;;18.41;97.58
49611;BME280;35515;48.766;9.176;2023-05-23T02:30:05;98189.53;;;18.37;97.11
49611;BME280;35515;48.766;9.176;2023-05-23T02:32:32;98189.22;;;18.33;98.10
49611;BME280;35515;48.766;9.176;2023-05-23T02:34:58;98200.19;;;18.33;98.07
49611;BME280;35515;48.766;9.176;2023-05-23T02:37:26;98194.38;;;18.30;98.23
49611;BME280;35515;48.766;9.176;2023-05-23T02:39:52;98196.09;;;18.36;98.06
49611;BME280;35515;48.766;9.176;2023-05-23T02:42:19;98199.88;;;18.30;97.99
49611;BME280;35515;48.766;9.176;2023-05-23T02:44:46;98199.81;;;18.25;98.46
49611;BME280;35515;48.766;9.176;2023-05-23T02:47:12;98197.63;;;18.21;98.98
49611;BME280;35515;48.766;9.176;2023-05-23T02:49:39;98198.75;;;18.26;98.69
49611;BME280;35515;48.766;9.176;2023-05-23T02:52:05;98197.97;;;18.30;97.17
49611;BME280;35515;48.766;9.176;2023-05-23T02:54:33;98210.25;;;18.23;98.97
49611;BME280;35515;48.766;9.176;2023-05-23T02:57:00;98210.28;;;18.28;98.51
49611;BME280;35515;48.766;9.176;2023-05-23T02:59:26;98214.13;;;18.27;97.74
49611;BME280;35515;48.766;9.176;2023-05-23T03:01:53;98211.38;;;18.27;98.30
49611;BME280;35515;48.766;9.176;2023-05-23T03:04:19;98210.84;;;18.30;97.85
49611;BME280;35515;48.766;9.176;2023-05-23T03:06:46;98203.94;;;18.22;98.42
49611;BME280;35515;48.766;9.176;2023-05-23T03:09:13;98215.72;;;18.23;98.10
49611;BME280;35515;48.766;9.176;2023-05-23T03:11:42;98214.59;;;18.18;98.87
49611;BME280;35515;48.766;9.176;2023-05-23T03:14:08;98220.72;;;18.31;97.01
49611;BME280;35515;48.766;9.176;2023-05-23T03:16:35;98213.13;;;18.38;97.03
49611;BME280;35515;48.766;9.176;2023-05-23T03:19:01;98219.56;;;18.21;97.90
49611;BME280;35515;48.766;9.176;2023-05-23T03:21:31;98222.88;;;18.24;97.64
49611;BME280;35515;48.766;9.176;2023-05-23T03:23:59;98227.50;;;18.23;97.69
49611;BME280;35515;48.766;9.176;2023-05-23T03:26:25;98216.72;;;18.06;99.11
49611;BME280;35515;48.766;9.176;2023-05-23T03:28:53;98219.69;;;18.04;99.49
49611;BME280;35515;48.766;9.176;2023-05-23T03:31:20;98228.28;;;18.13;98.42
49611;BME280;35515;48.766;9.176;2023-05-23T03:33:46;98234.28;;;18.10;98.14
49611;BME280;35515;48.766;9.176;2023-05-23T03:36:13;98227.13;;;18.09;98.61
49611;BME280;35515;48.766;9.176;2023-05-23T03:38:39;98229.34;;;18.12;98.12
49611;BME280;35515;48.766;9.176;2023-05-23T03:41:06;98231.38;;;18.22;97.15
49611;BME280;35515;48.766;9.176;2023-05-23T03:43:32;98224.44;;;18.14;97.78
49611;BME280;35515;48.766;9.176;2023-05-23T03:46:00;98232.78;;;18.30;96.44
49611;BME280;35515;48.766;9.176;2023-05-23T03:48:27;98228.03;;;18.20;96.90
49611;BME280;35515;48.766;9.176;2023-05-23T03:50:55;98228.81;;;18.10;97.51
49611;BME280;35515;48.766;9.176;2023-05-23T03:53:21;98219.47;;;18.11;97.73
49611;BME280;35515;48.766;9.176;2023-05-23T03:55:48;98223.00;;;18.07;97.85
49611;BME280;35515;48.766;9.176;2023-05-23T03:58:15;98227.19;;;18.14;97.57
49611;BME280;35515;48.766;9.176;2023-05-23T04:00:41;98221.06;;;18.07;97.87
49611;BME280;35515;48.766;9.176;2023-05-23T04:03:09;98225.97;;;18.00;98.61
49611;BME280;35515;48.766;9.176;2023-05-23T04:05:38;98221.03;;;18.02;98.67
49611;BME280;35515;48.766;9.176;2023-05-23T04:08:05;98227.34;;;18.02;98.27
49611;BME280;35515;48.766;9.176;2023-05-23T04:10:32;98235.84;;;18.01;98.79
49611;BME280;35515;48.766;9.176;2023-05-23T04:12:59;98229.03;;;18.03;98.44
49611;BME280;35515;48.766;9.176;2023-05-23T04:15:25;98232.63;;;18.09;98.10
49611;BME280;35515;48.766;9.176;2023-05-23T04:17:52;98238.91;;;18.10;97.69
49611;BME280;35515;48.766;9.176;2023-05-23T04:20:20;98231.78;;;18.09;97.79
49611;BME280;35515;48.766;9.176;2023-05-23T04:22:46;98241.94;;;18.08;98.35
49611;BME280;35515;48.766;9.176;2023-05-23T04:25:16;98240.47;;;18.00;98.67
49611;BME280;35515;48.766;9.176;2023-05-23T04:27:44;98238.09;;;18.09;98.06
49611;BME280;35515;48.766;9.176;2023-05-23T04:30:12;98241.59;;;18.04;98.15
49611;BME280;35515;48.766;9.176;2023-05-23T04:32:42;98243.16;;;17.95;99.07
49611;BME280;35515;48.766;9.176;2023-05-23T04:35:08;98252.25;;;17.96;99.27
49611;BME280;35515;48.766;9.176;2023-05-23T04:37:36;98239.88;;;17.93;99.43
49611;BME280;35515;48.766;9.176;2023-05-23T04:40:04;98239.13;;;18.03;98.52
49611;BME280;35515;48.766;9.176;2023-05-23T04:42:31;98252.38;;;17.84;100.00
49611;BME280;35515;48.766;9.176;2023-05-23T04:44:58;98261.13;;;17.86;100.00
49611;BME280;35515;48.766;9.176;2023-05-23T04:47:26;98259.50;;;17.85;99.80
49611;BME280;35515;48.766;9.176;2023-05-23T04:49:53;98267.06;;;18.00;99.42
49611;BME280;35515;48.766;9.176;2023-05-23T04:52:23;98269.53;;;18.01;98.42
49611;BME280;35515;48.766;9.176;2023-05-23T04:54:53;98263.84;;;18.08;97.69
49611;BME280;35515;48.766;9.176;2023-05-23T04:57:20;98264.28;;;17.95;98.68
49611;BME280;35515;48.766;9.176;2023-05-23T04:59:48;98273.50;;;17.88;99.32
49611;BME280;35515;48.766;9.176;2023-05-23T05:02:15;98270.97;;;17.82;100.00
49611;BME280;35515;48.766;9.176;2023-05-23T05:04:42;98277.56;;;17.86;99.69
49611;BME280;35515;48.766;9.176;2023-05-23T05:07:08;98271.69;;;17.94;99.07
49611;BME280;35515;48.766;9.176;2023-05-23T05:09:35;98268.59;;;17.91;99.66
49611;BME280;35515;48.766;9.176;2023-05-23T05:12:03;98278.31;;;17.98;98.64
49611;BME280;35515;48.766;9.176;2023-05-23T05:14:30;98275.09;;;17.84;99.92
49611;BME280;35515;48.766;9.176;2023-05-23T05:16:59;98266.13;;;17.89;99.49
49611;BME280;35515;48.766;9.176;2023-05-23T05:19:27;98280.84;;;17.83;99.75
49611;BME280;35515;48.766;9.176;2023-05-23T05:21:53;98276.22;;;17.88;99.78
49611;BME280;35515;48.766;9.176;2023-05-23T05:24:21;98285.84;;;17.91;99.59
49611;BME280;35515;48.766;9.176;2023-05-23T05:26:48;98283.63;;;17.88;99.26
49611;BME280;35515;48.766;9.176;2023-05-23T05:29:16;98284.84;;;17.97;98.68
49611;BME280;35515;48.766;9.176;2023-05-23T05:31:43;98287.34;;;17.99;98.47
49611;BME280;35515;48.766;9.176;2023-05-23T05:34:11;98287.53;;;17.92;98.57
49611;BME280;35515;48.766;9.176;2023-05-23T05:36:38;98294.69;;;17.93;98.36
49611;BME280;35515;48.766;9.176;2023-05-23T05:39:10;98286.38;;;17.88;99.16
49611;BME280;35515;48.766;9.176;2023-05-23T05:41:36;98297.06;;;17.89;98.82
49611;BME280;35515;48.766;9.176;2023-05-23T05:44:03;98296.63;;;17.93;98.18
49611;BME280;35515;48.766;9.176;2023-05-23T05:46:31;98288.53;;;17.86;98.96
49611;BME280;35515;48.766;9.176;2023-05-23T05:48:57;98298.34;;;17.82;99.25
49611;BME280;35515;48.766;9.176;2023-05-23T05:51:24;98289.78;;;17.73;99.88
49611;BME280;35515;48.766;9.176;2023-05-23T05:53:50;98293.09;;;17.75;100.00
49611;BME280;35515;48.766;9.176;2023-05-23T05:56:17;98293.94;;;17.76;99.99
49611;BME280;35515;48.766;9.176;2023-05-23T05:58:43;98294.53;;;17.83;99.96
49611;BME280;35515;48.766;9.176;2023-05-23T06:01:10;98304.47;;;17.89;99.22
49611;BME280;35515;48.766;9.176;2023-05-23T06:03:38;98300.22;;;17.76;99.82
49611;BME280;35515;48.766;9.176;2023-05-23T06:06:04;98299.69;;;17.79;99.51
49611;BME280;35515;48.766;9.176;2023-05-23T06:08:33;98294.69;;;17.93;98.33
49611;BME280;35515;48.766;9.176;2023-05-23T06:10:59;98302.50;;;17.84;99.33
49611;BME280;35515;48.766;9.176;2023-05-23T06:13:26;98302.66;;;17.95;97.89
49611;BME280;35515;48.766;9.176;2023-05-23T06:15:52;98294.34;;;17.89;98.01
49611;BME280;35515;48.766;9.176;2023-05-23T06:18:19;98300.91;;;17.88;98.09
49611;BME280;35515;48.766;9.176;2023-05-23T06:20:47;98299.34;;;17.93;97.43
49611;BME280;35515;48.766;9.176;2023-05-23T06:23:13;98306.53;;;17.99;97.63
49611;BME280;35515;48.766;9.176;2023-05-23T06:25:40;98297.28;;;18.05;96.29
49611;BME280;35515;48.766;9.176;2023-05-23T06:28:06;98305.22;;;18.07;96.45
49611;BME280;35515;48.766;9.176;2023-05-23T06:30:33;98304.09;;;18.02;96.45
49611;BME280;35515;48.766;9.176;2023-05-23T06:33:00;98312.25;;;17.97;96.94
49611;BME280;35515;48.766;9.176;2023-05-23T06:35:26;98314.44;;;17.95;96.99
49611;BME280;35515;48.766;9.176;2023-05-23T06:37:54;98313.94;;;17.98;97.21
49611;BME280;35515;48.766;9.176;2023-05-23T06:40:21;98312.63;;;17.84;98.29
49611;BME280;35515;48.766;9.176;2023-05-23T06:42:48;98327.75;;;17.86;98.06
49611;BME280;35515;48.766;9.176;2023-05-23T06:45:14;98320.03;;;17.83;98.72
49611;BME280;35515;48.766;9.176;2023-05-23T06:47:41;98327.47;;;17.88;97.82
49611;BME280;35515;48.766;9.176;2023-05-23T06:50:10;98325.56;;;17.88;97.37
49611;BME280;35515;48.766;9.176;2023-05-23T06:52:36;98336.03;;;17.92;97.10
49611;BME280;35515;48.766;9.176;2023-05-23T06:55:05;98341.38;;;17.81;97.77
49611;BME280;35515;48.766;9.176;2023-05-23T06:57:32;98343.34;;;17.86;97.58
49611;BME280;35515;48.766;9.176;2023-05-23T06:59:58;98341.06;;;18.00;95.91
49611;BME280;35515;48.766;9.176;2023-05-23T07:02:25;98347.75;;;18.09;94.83
49611;BME280;35515;48.766;9.176;2023-05-23T07:04:51;98352.16;;;17.88;96.16
49611;BME280;35515;48.766;9.176;2023-05-23T07:07:18;98354.50;;;17.79;96.28
49611;BME280;35515;48.766;9.176;2023-05-23T07:09:45;98360.38;;;17.88;94.93
49611;BME280;35515;48.766;9.176;2023-05-23T07:12:13;98355.28;;;17.75;95.30
49611;BME280;35515;48.766;9.176;2023-05-23T07:14:39;98363.75;;;17.73;95.60
49611;BME280;35515;48.766;9.176;2023-05-23T07:17:06;98368.72;;;17.54;96.48
49611;BME280;35515;48.766;9.176;2023-05-23T07:19:32;98375.78;;;17.72;94.97
49611;BME280;35515;48.766;9.176;2023-05-23T07:21:59;98373.84;;;17.67;94.43
49611;BME280;35515;48.766;9.176;2023-05-23T07:24:25;98378.03;;;17.53;95.04
49611;BME280;35515;48.766;9.176;2023-05-23T07:26:52;98379.31;;;17.67;92.57
49611;BME280;35515;48.766;9.176;2023-05-23T07:29:20;98376.59;;;17.72;91.53
49611;BME280;35515;48.766;9.176;2023-05-23T07:31:46;98385.16;;;17.54;91.90
49611;BME280;35515;48.766;9.176;2023-05-23T07:34:13;98374.50;;;17.35;92.72
49611;BME280;35515;48.766;9.176;2023-05-23T07:36:40;98381.56;;;17.53;91.09
49611;BME280;35515;48.766;9.176;2023-05-23T07:39:06;98371.59;;;17.42;92.08
49611;BME280;35515;48.766;9.176;2023-05-23T07:41:33;98383.81;;;17.57;91.20
49611;BME280;35515;48.766;9.176;2023-05-23T07:43:59;98381.53;;;17.31;93.00
49611;BME280;35515;48.766;9.176;2023-05-23T07:46:27;98380.63;;;17.43;92.68
49611;BME280;35515;48.766;9.176;2023-05-23T07:48:54;98392.91;;;17.40;93.21
49611;BME280;35515;48.766;9.176;2023-05-23T07:51:21;98382.94;;;17.34;93.13
49611;BME280;35515;48.766;9.176;2023-05-23T07:53:47;98387.84;;;17.49;91.49
49611;BME280;35515;48.766;9.176;2023-05-23T07:56:14;98384.28;;;17.31;91.30
49611;BME280;35515;48.766;9.176;2023-05-23T07:58:41;98399.25;;;17.24;92.17
49611;BME280;35515;48.766;9.176;2023-05-23T08:01:07;98387.69;;;17.38;88.89
49611;BME280;35515;48.766;9.176;2023-05-23T08:03:35;98391.75;;;17.36;87.87
49611;BME280;35515;48.766;9.176;2023-05-23T08:06:02;98393.16;;;17.38;87.16
49611;BME280;35515;48.766;9.176;2023-05-23T08:08:29;98393.97;;;17.39;85.43
49611;BME280;35515;48.766;9.176;2023-05-23T08:10:55;98401.13;;;17.23;86.97
49611;BME280;35515;48.766;9.176;2023-05-23T08:13:22;98402.06;;;17.29;86.41
49611;BME280;35515;48.766;9.176;2023-05-23T08:15:48;98394.50;;;17.19;87.09
49611;BME280;35515;48.766;9.176;2023-05-23T08:18:15;98412.41;;;17.44;85.76
49611;BME280;35515;48.766;9.176;2023-05-23T08:20:43;98400.28;;;17.40;85.65
49611;BME280;35515;48.766;9.176;2023-05-23T08:23:10;98411.50;;;17.38;85.01
49611;BME280;35515;48.766;9.176;2023-05-23T08:25:38;98406.44;;;17.30;85.83
49611;BME280;35515;48.766;9.176;2023-05-23T08:28:04;98420.88;;;17.42;83.40
49611;BME280;35515;48.766;9.176;2023-05-23T08:30:31;98421.53;;;17.32;84.61
49611;BME280;35515;48.766;9.176;2023-05-23T08:32:59;98426.13;;;17.27;83.60
49611;BME280;35515;48.766;9.176;2023-05-23T08:35:29;98418.75;;;17.10;84.27
49611;BME280;35515;48.766;9.176;2023-05-23T08:38:01;98425.88;;;17.11;84.75
49611;BME280;35515;48.766;9.176;2023-05-23T08:40:30;98418.59;;;17.00;85.72
49611;BME280;35515;48.766;9.176;2023-05-23T08:42:57;98430.59;;;16.99;85.78
49611;BME280;35515;48.766;9.176;2023-05-23T08:45:24;98425.72;;;17.01;85.56
49611;BME280;35515;48.766;9.176;2023-05-23T08:47:51;98429.03;;;17.03;84.91
49611;BME280;35515;48.766;9.176;2023-05-23T08:50:17;98436.66;;;17.01;84.92
49611;BME280;35515;48.766;9.176;2023-05-23T08:52:49;98435.66;;;17.07;84.96
49611;BME280;35515;48.766;9.176;2023-05-23T08:55:17;98435.66;;;17.07;83.96
49611;BME280;35515;48.766;9.176;2023-05-23T08:57:45;98440.06;;;17.08;84.18
49611;BME280;35515;48.766;9.176;2023-05-23T09:00:13;98443.31;;;17.22;82.41
49611;BME280;35515;48.766;9.176;2023-05-23T09:02:42;98449.16;;;17.14;82.25
49611;BME280;35515;48.766;9.176;2023-05-23T09:05:09;98450.75;;;17.10;82.22
49611;BME280;35515;48.766;9.176;2023-05-23T09:07:36;98455.06;;;17.23;82.41
49611;BME280;35515;48.766;9.176;2023-05-23T09:10:04;98457.91;;;17.28;82.16
49611;BME280;35515;48.766;9.176;2023-05-23T09:12:32;98458.06;;;17.21;82.27
49611;BME280;35515;48.766;9.176;2023-05-23T09:15:01;98453.56;;;17.32;81.08
49611;BME280;35515;48.766;9.176;2023-05-23T09:17:27;98453.16;;;17.23;81.62
49611;BME280;35515;48.766;9.176;2023-05-23T09:19:54;98464.28;;;17.16;81.22
49611;BME280;35515;48.766;9.176;2023-05-23T09:22:23;98455.88;;;17.23;79.69
49611;BME280;35515;48.766;9.176;2023-05-23T09:24:50;98462.53;;;17.10;80.07
49611;BME280;35515;48.766;9.176;2023-05-23T09:27:17;98469.59;;;17.06;80.66
49611;BME280;35515;48.766;9.176;2023-05-23T09:29:46;98460.19;;;17.02;80.76
49611;BME280;35515;48.766;9.176;2023-05-23T09:32:14;98461.69;;;17.10;80.43
49611;BME280;35515;48.766;9.176;2023-05-23T09:34:41;98464.13;;;17.06;80.31
49611;BME280;35515;48.766;9.176;2023-05-23T09:37:10;98460.34;;;16.95;81.11
49611;BME280;35515;48.766;9.176;2023-05-23T09:39:37;98463.63;;;17.09;80.53
49611;BME280;35515;48.766;9.176;2023-05-23T09:42:04;98458.06;;;17.04;80.63
49611;BME280;35515;48.766;9.176;2023-05-23T09:44:31;98459.53;;;16.95;81.59
49611;BME280;35515;48.766;9.176;2023-05-23T09:47:05;98465.84;;;17.12;80.18
49611;BME280;35515;48.766;9.176;2023-05-23T09:49:32;98467.16;;;17.10;80.14
49611;BME280;35515;48.766;9.176;2023-05-23T09:51:59;98460.22;;;17.19;79.61
49611;BME280;35515;48.766;9.176;2023-05-23T09:54:26;98463.13;;;17.29;78.94
49611;BME280;35515;48.766;9.176;2023-05-23T09:56:53;98470.56;;;17.34;78.25
49611;BME280;35515;48.766;9.176;2023-05-23T09:59:22;98467.78;;;17.29;78.44
49611;BME280;35515;48.766;9.176;2023-05-23T10:01:50;98467.69;;;17.24;79.17
49611;BME280;35515;48.766;9.176;2023-05-23T10:04:20;98469.50;;;17.35;78.34
49611;BME280;35515;48.766;9.176;2023-05-23T10:06:50;98470.34;;;17.18;78.64
49611;BME280;35515;48.766;9.176;2023-05-23T10:09:20;98462.50;;;17.44;76.33
49611;BME280;35515;48.766;9.176;2023-05-23T10:14:54;98460.19;;;17.36;77.28
49611;BME280;35515;48.766;9.176;2023-05-23T10:17:28;98458.06;;;17.38;76.93
49611;BME280;35515;48.766;9.176;2023-05-23T10:20:03;98457.28;;;17.60;75.10
49611;BME280;35515;48.766;9.176;2023-05-23T10:22:33;98456.75;;;17.63;74.49
49611;BME280;35515;48.766;9.176;2023-05-23T10:25:01;98462.38;;;17.73;73.43
49611;BME280;35515;48.766;9.176;2023-05-23T10:27:28;98457.72;;;17.74;73.04
49611;BME280;35515;48.766;9.176;2023-05-23T10:29:55;98459.97;;;17.77;72.81
49611;BME280;35515;48.766;9.176;2023-05-23T10:32:22;98460.53;;;17.96;71.49
49611;BME280;35515;48.766;9.176;2023-05-23T10:34:56;98460.16;;;18.09;70.26
49611;BME280;35515;48.766;9.176;2023-05-23T10:37:32;98459.13;;;18.15;70.07
49611;BME280;35515;48.766;9.176;2023-05-23T10:40:06;98460.84;;;18.21;69.79
49611;BME280;35515;48.766;9.176;2023-05-23T10:42:42;98457.47;;;18.14;68.70
49611;BME280;35515;48.766;9.176;2023-05-23T10:45:14;98458.22;;;18.10;68.89
49611;BME280;35515;48.766;9.176;2023-05-23T10:47:41;98461.75;;;18.05;70.43
49611;BME280;35515;48.766;9.176;2023-05-23T10:50:11;98460.91;;;18.04;71.44
49611;BME280;35515;48.766;9.176;2023-05-23T10:52:40;98469.00;;;18.16;70.47
49611;BME280;35515;48.766;9.176;2023-05-23T10:55:12;98463.41;;;18.06;70.86
49611;BME280;35515;48.766;9.176;2023-05-23T10:57:39;98463.91;;;18.03;71.09
49611;BME280;35515;48.766;9.176;2023-05-23T11:00:12;98468.56;;;17.85;72.64
49611;BME280;35515;48.766;9.176;2023-05-23T11:02:46;98461.09;;;17.98;70.02
49611;BME280;35515;48.766;9.176;2023-05-23T11:05:19;98460.94;;;17.87;70.59
49611;BME280;35515;48.766;9.176;2023-05-23T11:08:05;98458.88;;;17.95;71.63
49611;BME280;35515;48.766;9.176;2023-05-23T11:10:50;98475.50;;;18.10;70.70
49611;BME280;35515;48.766;9.176;2023-05-23T11:13:18;98471.75;;;17.94;70.94
49611;BME280;35515;48.766;9.176;2023-05-23T11:15:46;98480.66;;;18.07;70.05
49611;BME280;35515;48.766;9.176;2023-05-23T11:18:19;98480.81;;;18.17;67.49
49611;BME280;35515;48.766;9.176;2023-05-23T11:20:46;98475.59;;;18.15;66.78
49611;BME280;35515;48.766;9.176;2023-05-23T11:23:16;98479.25;;;18.04;67.80
49611;BME280;35515;48.766;9.176;2023-05-23T11:25:43;98484.94;;;18.19;65.49
49611;BME280;35515;48.766;9.176;2023-05-23T11:28:11;98477.66;;;18.08;66.25
49611;BME280;35515;48.766;9.176;2023-05-23T11:30:38;98477.59;;;18.03;66.09
49611;BME280;35515;48.766;9.176;2023-05-23T11:33:06;98482.00;;;18.04;66.33
49611;BME280;35515;48.766;9.176;2023-05-23T11:35:35;98467.84;;;18.12;64.88
49611;BME280;35515;48.766;9.176;2023-05-23T11:38:03;98470.84;;;18.11;66.03
49611;BME280;35515;48.766;9.176;2023-05-23T11:40:33;98464.56;;;18.10;66.59
49611;BME280;35515;48.766;9.176;2023-05-23T11:43:02;98458.69;;;18.24;65.83
49611;BME280;35515;48.766;9.176;2023-05-23T11:45:29;98471.28;;;18.25;66.18
49611;BME280;35515;48.766;9.176;2023-05-23T11:47:57;98466.00;;;18.18;66.52
49611;BME280;35515;48.766;9.176;2023-05-23T11:50:23;98468.94;;;18.11;66.96
49611;BME280;35515;48.766;9.176;2023-05-23T11:52:50;98473.59;;;18.33;66.26
49611;BME280;35515;48.766;9.176;2023-05-23T11:55:18;98472.44;;;18.29;66.91
49611;BME280;35515;48.766;9.176;2023-05-23T11:57:46;98475.75;;;18.31;65.98
49611;BME280;35515;48.766;9.176;2023-05-23T12:00:14;98469.13;;;18.27;66.13
49611;BME280;35515;48.766;9.176;2023-05-23T12:02:41;98466.91;;;18.51;64.37
49611;BME280;35515;48.766;9.176;2023-05-23T12:05:09;98472.78;;;18.60;63.33
49611;BME280;35515;48.766;9.176;2023-05-23T12:07:39;98460.16;;;18.59;62.46
49611;BME280;35515;48.766;9.176;2023-05-23T12:10:07;98470.59;;;18.62;62.98
49611;BME280;35515;48.766;9.176;2023-05-23T12:12:34;98460.34;;;18.52;62.82
49611;BME280;35515;48.766;9.176;2023-05-23T12:15:02;98463.88;;;18.47;63.80
49611;BME280;35515;48.766;9.176;2023-05-23T12:17:29;98455.47;;;18.59;63.90
49611;BME280;35515;48.766;9.176;2023-05-23T12:19:57;98468.06;;;18.55;63.73
49611;BME280;35515;48.766;9.176;2023-05-23T12:22:24;98452.59;;;18.44;63.51
49611;BME280;35515;48.766;9.176;2023-05-23T12:24:52;98443.50;;;18.43;63.83
49611;BME280;35515;48.766;9.176;2023-05-23T12:27:26;98451.44;;;18.40;64.22
49611;BME280;35515;48.766;9.176;2023-05-23T12:30:05;98445.25;;;18.49;63.27
49611;BME280;35515;48.766;9.176;2023-05-23T12:32:31;98444.72;;;18.52;61.84
49611;BME280;35515;48.766;9.176;2023-05-23T12:34:58;98443.28;;;18.72;62.11
49611;BME280;35515;48.766;9.176;2023-05-23T12:37:25;98434.22;;;18.71;62.63
49611;BME280;35515;48.766;9.176;2023-05-23T12:39:52;98429.56;;;18.72;62.70
49611;BME280;35515;48.766;9.176;2023-05-23T12:42:18;98441.34;;;19.00;61.62
49611;BME280;35515;48.766;9.176;2023-05-23T12:44:45;98435.50;;;18.91;62.31
49611;BME280;35515;48.766;9.176;2023-05-23T12:47:16;98442.19;;;18.73;63.16
49611;BME280;35515;48.766;9.176;2023-05-23T12:49:42;98434.50;;;18.75;63.69
49611;BME280;35515;48.766;9.176;2023-05-23T12:52:11;98437.31;;;18.80;63.62
49611;BME280;35515;48.766;9.176;2023-05-23T12:54:37;98434.00;;;18.78;63.62
49611;BME280;35515;48.766;9.176;2023-05-23T12:57:04;98429.78;;;18.98;62.38
49611;BME280;35515;48.766;9.176;2023-05-23T12:59:30;98417.13;;;18.92;62.99
49611;BME280;35515;48.766;9.176;2023-05-23T13:01:57;98427.06;;;18.98;62.37
49611;BME280;35515;48.766;9.176;2023-05-23T13:04:26;98419.66;;;18.98;62.19
49611;BME280;35515;48.766;9.176;2023-05-23T13:06:52;98422.94;;;19.00;62.35